METAR
METAR

METAR

METAR EPSY 152100Z VRB02KT CAVOK M14/M15 Q1018=
TAF EPSY 152030Z 1521/1606 VRB02KT CAVOK BECMG 1523/1601 BKN014 BECMG 1603/1606 28008KT=
Ostrzeżenia
Ostrzeżenia

Ostrzeżenia

BRAK